sensor_id;sensor_type;location;lat;lon;timestamp;P1;durP1;ratioP1;P2;durP2;ratioP2
75716;SDS011;64333;50.138;14.332;2023-05-19T00:01:56;5.72;;;3.58;;
75716;SDS011;64333;50.138;14.332;2023-05-19T00:04:24;6.55;;;3.35;;
75716;SDS011;64333;50.138;14.332;2023-05-19T00:06:50;7.60;;;3.83;;
75716;SDS011;64333;50.138;14.332;2023-05-19T00:09:16;4.03;;;3.13;;
75716;SDS011;64333;50.138;14.332;2023-05-19T00:11:41;5.07;;;3.00;;
75716;SDS011;64333;50.138;14.332;2023-05-19T00:14:08;6.07;;;3.60;;
75716;SDS011;64333;50.138;14.332;2023-05-19T00:16:34;7.28;;;3.38;;
75716;SDS011;64333;50.138;14.332;2023-05-19T00:19:02;5.75;;;2.80;;
75716;SDS011;64333;50.138;14.332;2023-05-19T00:21:34;4.80;;;3.00;;
75716;SDS011;64333;50.138;14.332;2023-05-19T00:24:01;4.63;;;2.60;;
75716;SDS011;64333;50.138;14.332;2023-05-19T00:26:27;12.90;;;3.72;;
75716;SDS011;64333;50.138;14.332;2023-05-19T00:28:52;6.28;;;3.08;;
75716;SDS011;64333;50.138;14.332;2023-05-19T00:31:17;4.25;;;2.95;;
75716;SDS011;64333;50.138;14.332;2023-05-19T00:33:43;5.43;;;3.22;;
75716;SDS011;64333;50.138;14.332;2023-05-19T00:36:08;4.70;;;2.83;;
75716;SDS011;64333;50.138;14.332;2023-05-19T00:38:35;5.10;;;2.95;;
75716;SDS011;64333;50.138;14.332;2023-05-19T00:41:01;5.90;;;2.90;;
75716;SDS011;64333;50.138;14.332;2023-05-19T00:43:27;3.88;;;2.78;;
75716;SDS011;64333;50.138;14.332;2023-05-19T00:45:54;5.07;;;2.72;;
75716;SDS011;64333;50.138;14.332;2023-05-19T00:48:20;5.43;;;2.92;;
75716;SDS011;64333;50.138;14.332;2023-05-19T00:50:46;5.25;;;3.00;;
75716;SDS011;64333;50.138;14.332;2023-05-19T00:53:12;5.70;;;2.78;;
75716;SDS011;64333;50.138;14.332;2023-05-19T00:55:38;5.88;;;3.00;;
75716;SDS011;64333;50.138;14.332;2023-05-19T00:58:05;4.95;;;3.10;;
75716;SDS011;64333;50.138;14.332;2023-05-19T01:00:31;4.53;;;2.80;;
75716;SDS011;64333;50.138;14.332;2023-05-19T01:02:57;7.05;;;3.42;;
75716;SDS011;64333;50.138;14.332;2023-05-19T01:05:23;3.78;;;3.13;;
75716;SDS011;64333;50.138;14.332;2023-05-19T01:07:48;4.20;;;3.28;;
75716;SDS011;64333;50.138;14.332;2023-05-19T01:10:17;4.07;;;2.65;;
75716;SDS011;64333;50.138;14.332;2023-05-19T01:12:43;4.10;;;3.25;;
75716;SDS011;64333;50.138;14.332;2023-05-19T01:15:09;6.00;;;3.65;;
75716;SDS011;64333;50.138;14.332;2023-05-19T01:17:43;6.10;;;2.90;;
75716;SDS011;64333;50.138;14.332;2023-05-19T01:20:47;7.28;;;3.55;;
75716;SDS011;64333;50.138;14.332;2023-05-19T01:31:54;4.80;;;3.22;;
75716;SDS011;64333;50.138;14.332;2023-05-19T01:34:22;4.07;;;2.97;;
75716;SDS011;64333;50.138;14.332;2023-05-19T01:36:51;6.82;;;3.70;;
75716;SDS011;64333;50.138;14.332;2023-05-19T01:39:19;4.05;;;3.15;;
75716;SDS011;64333;50.138;14.332;2023-05-19T01:41:44;5.18;;;3.00;;
75716;SDS011;64333;50.138;14.332;2023-05-19T01:44:11;4.47;;;2.97;;
75716;SDS011;64333;50.138;14.332;2023-05-19T01:46:37;4.63;;;2.88;;
75716;SDS011;64333;50.138;14.332;2023-05-19T01:49:04;5.07;;;3.10;;
75716;SDS011;64333;50.138;14.332;2023-05-19T01:51:30;3.13;;;2.50;;
75716;SDS011;64333;50.138;14.332;2023-05-19T01:53:56;5.22;;;3.15;;
75716;SDS011;64333;50.138;14.332;2023-05-19T01:56:25;4.22;;;3.08;;
75716;SDS011;64333;50.138;14.332;2023-05-19T01:59:41;4.68;;;2.90;;
75716;SDS011;64333;50.138;14.332;2023-05-19T02:11:21;5.32;;;3.05;;
75716;SDS011;64333;50.138;14.332;2023-05-19T02:13:55;5.10;;;2.88;;
75716;SDS011;64333;50.138;14.332;2023-05-19T02:16:26;5.40;;;3.05;;
75716;SDS011;64333;50.138;14.332;2023-05-19T02:18:53;5.50;;;3.03;;
75716;SDS011;64333;50.138;14.332;2023-05-19T02:21:19;6.50;;;3.35;;
75716;SDS011;64333;50.138;14.332;2023-05-19T02:23:45;6.53;;;3.53;;
75716;SDS011;64333;50.138;14.332;2023-05-19T02:26:11;5.78;;;3.28;;
75716;SDS011;64333;50.138;14.332;2023-05-19T02:28:36;5.15;;;3.33;;
75716;SDS011;64333;50.138;14.332;2023-05-19T02:31:02;6.40;;;3.65;;
75716;SDS011;64333;50.138;14.332;2023-05-19T02:33:29;6.50;;;3.70;;
75716;SDS011;64333;50.138;14.332;2023-05-19T02:35:55;7.72;;;3.75;;
75716;SDS011;64333;50.138;14.332;2023-05-19T02:38:21;4.15;;;3.45;;
75716;SDS011;64333;50.138;14.332;2023-05-19T02:40:46;6.28;;;3.10;;
75716;SDS011;64333;50.138;14.332;2023-05-19T02:43:12;4.95;;;2.97;;
75716;SDS011;64333;50.138;14.332;2023-05-19T02:45:37;5.00;;;3.30;;
75716;SDS011;64333;50.138;14.332;2023-05-19T02:48:02;7.55;;;3.75;;
75716;SDS011;64333;50.138;14.332;2023-05-19T02:50:28;6.45;;;3.40;;
75716;SDS011;64333;50.138;14.332;2023-05-19T02:52:53;8.65;;;3.72;;
75716;SDS011;64333;50.138;14.332;2023-05-19T02:55:19;5.10;;;3.75;;
75716;SDS011;64333;50.138;14.332;2023-05-19T02:57:44;6.88;;;3.53;;
75716;SDS011;64333;50.138;14.332;2023-05-19T03:00:10;7.05;;;3.50;;
75716;SDS011;64333;50.138;14.332;2023-05-19T03:02:35;7.43;;;3.50;;
75716;SDS011;64333;50.138;14.332;2023-05-19T03:05:01;4.35;;;3.28;;
75716;SDS011;64333;50.138;14.332;2023-05-19T03:07:27;6.85;;;3.60;;
75716;SDS011;64333;50.138;14.332;2023-05-19T03:09:53;6.28;;;3.70;;
75716;SDS011;64333;50.138;14.332;2023-05-19T03:12:18;4.57;;;3.53;;
75716;SDS011;64333;50.138;14.332;2023-05-19T03:14:44;10.27;;;3.70;;
75716;SDS011;64333;50.138;14.332;2023-05-19T03:17:10;5.50;;;3.47;;
75716;SDS011;64333;50.138;14.332;2023-05-19T03:19:36;4.13;;;3.25;;
75716;SDS011;64333;50.138;14.332;2023-05-19T03:22:01;6.43;;;3.75;;
75716;SDS011;64333;50.138;14.332;2023-05-19T03:24:27;6.65;;;3.85;;
75716;SDS011;64333;50.138;14.332;2023-05-19T03:26:52;5.03;;;3.22;;
75716;SDS011;64333;50.138;14.332;2023-05-19T03:29:18;6.07;;;3.70;;
75716;SDS011;64333;50.138;14.332;2023-05-19T03:31:43;5.25;;;3.88;;
75716;SDS011;64333;50.138;14.332;2023-05-19T03:34:08;5.97;;;3.35;;
75716;SDS011;64333;50.138;14.332;2023-05-19T03:36:34;3.63;;;3.03;;
75716;SDS011;64333;50.138;14.332;2023-05-19T03:39:05;5.68;;;3.95;;
75716;SDS011;64333;50.138;14.332;2023-05-19T03:41:31;6.55;;;3.80;;
75716;SDS011;64333;50.138;14.332;2023-05-19T03:43:57;4.65;;;3.45;;
75716;SDS011;64333;50.138;14.332;2023-05-19T03:46:22;5.40;;;3.53;;
75716;SDS011;64333;50.138;14.332;2023-05-19T03:48:47;7.30;;;3.83;;
75716;SDS011;64333;50.138;14.332;2023-05-19T03:51:13;6.50;;;4.03;;
75716;SDS011;64333;50.138;14.332;2023-05-19T03:53:38;6.97;;;3.55;;
75716;SDS011;64333;50.138;14.332;2023-05-19T03:56:05;4.53;;;3.53;;
75716;SDS011;64333;50.138;14.332;2023-05-19T03:58:31;4.30;;;3.58;;
75716;SDS011;64333;50.138;14.332;2023-05-19T04:00:57;5.03;;;3.50;;
75716;SDS011;64333;50.138;14.332;2023-05-19T04:03:22;6.68;;;4.30;;
75716;SDS011;64333;50.138;14.332;2023-05-19T04:05:47;8.15;;;3.97;;
75716;SDS011;64333;50.138;14.332;2023-05-19T04:08:13;8.70;;;4.22;;
75716;SDS011;64333;50.138;14.332;2023-05-19T04:10:38;6.80;;;3.97;;
75716;SDS011;64333;50.138;14.332;2023-05-19T04:13:03;6.72;;;3.60;;
75716;SDS011;64333;50.138;14.332;2023-05-19T04:15:29;6.90;;;3.65;;
75716;SDS011;64333;50.138;14.332;2023-05-19T04:17:54;5.82;;;3.63;;
75716;SDS011;64333;50.138;14.332;2023-05-19T04:20:20;6.25;;;4.28;;
75716;SDS011;64333;50.138;14.332;2023-05-19T04:22:45;6.75;;;3.70;;
75716;SDS011;64333;50.138;14.332;2023-05-19T04:25:10;5.25;;;3.65;;
75716;SDS011;64333;50.138;14.332;2023-05-19T04:27:36;4.53;;;3.85;;
75716;SDS011;64333;50.138;14.332;2023-05-19T04:30:02;4.40;;;3.60;;
75716;SDS011;64333;50.138;14.332;2023-05-19T04:32:28;5.40;;;4.00;;
75716;SDS011;64333;50.138;14.332;2023-05-19T04:34:55;6.05;;;4.32;;
75716;SDS011;64333;50.138;14.332;2023-05-19T04:37:22;4.82;;;3.40;;
75716;SDS011;64333;50.138;14.332;2023-05-19T04:39:50;5.90;;;4.00;;
75716;SDS011;64333;50.138;14.332;2023-05-19T04:42:16;6.05;;;3.72;;
75716;SDS011;64333;50.138;14.332;2023-05-19T04:44:43;7.88;;;3.42;;
75716;SDS011;64333;50.138;14.332;2023-05-19T04:47:09;6.85;;;4.68;;
75716;SDS011;64333;50.138;14.332;2023-05-19T04:49:35;7.03;;;3.70;;
75716;SDS011;64333;50.138;14.332;2023-05-19T04:52:07;5.72;;;3.90;;
75716;SDS011;64333;50.138;14.332;2023-05-19T04:54:35;8.38;;;3.70;;
75716;SDS011;64333;50.138;14.332;2023-05-19T04:57:01;8.27;;;4.20;;
75716;SDS011;64333;50.138;14.332;2023-05-19T04:59:26;6.07;;;3.85;;
75716;SDS011;64333;50.138;14.332;2023-05-19T05:01:52;6.35;;;4.00;;
75716;SDS011;64333;50.138;14.332;2023-05-19T05:04:18;6.28;;;4.05;;
75716;SDS011;64333;50.138;14.332;2023-05-19T05:06:43;5.03;;;3.58;;
75716;SDS011;64333;50.138;14.332;2023-05-19T05:09:12;7.25;;;3.88;;
75716;SDS011;64333;50.138;14.332;2023-05-19T05:11:41;6.30;;;4.28;;
75716;SDS011;64333;50.138;14.332;2023-05-19T05:14:07;4.72;;;4.18;;
75716;SDS011;64333;50.138;14.332;2023-05-19T05:16:33;7.07;;;4.43;;
75716;SDS011;64333;50.138;14.332;2023-05-19T05:18:59;7.25;;;4.13;;
75716;SDS011;64333;50.138;14.332;2023-05-19T05:21:25;8.80;;;4.43;;
75716;SDS011;64333;50.138;14.332;2023-05-19T05:23:51;7.78;;;5.30;;
75716;SDS011;64333;50.138;14.332;2023-05-19T05:26:18;5.72;;;4.55;;
75716;SDS011;64333;50.138;14.332;2023-05-19T05:28:45;8.50;;;4.90;;
75716;SDS011;64333;50.138;14.332;2023-05-19T05:31:10;7.68;;;5.00;;
75716;SDS011;64333;50.138;14.332;2023-05-19T05:33:36;8.18;;;4.70;;
75716;SDS011;64333;50.138;14.332;2023-05-19T05:36:03;8.05;;;4.82;;
75716;SDS011;64333;50.138;14.332;2023-05-19T05:38:29;9.18;;;4.20;;
75716;SDS011;64333;50.138;14.332;2023-05-19T05:40:54;7.68;;;4.45;;
75716;SDS011;64333;50.138;14.332;2023-05-19T05:43:20;7.50;;;4.25;;
75716;SDS011;64333;50.138;14.332;2023-05-19T05:45:45;6.40;;;4.72;;
75716;SDS011;64333;50.138;14.332;2023-05-19T05:48:11;6.68;;;5.00;;
75716;SDS011;64333;50.138;14.332;2023-05-19T05:50:36;9.10;;;4.70;;
75716;SDS011;64333;50.138;14.332;2023-05-19T05:53:02;7.13;;;4.68;;
75716;SDS011;64333;50.138;14.332;2023-05-19T05:55:29;7.40;;;4.22;;
75716;SDS011;64333;50.138;14.332;2023-05-19T05:57:54;7.40;;;5.38;;
75716;SDS011;64333;50.138;14.332;2023-05-19T06:00:21;7.97;;;4.82;;
75716;SDS011;64333;50.138;14.332;2023-05-19T06:02:47;6.32;;;4.20;;
75716;SDS011;64333;50.138;14.332;2023-05-19T06:05:14;5.50;;;4.13;;
75716;SDS011;64333;50.138;14.332;2023-05-19T06:07:40;6.03;;;4.22;;
75716;SDS011;64333;50.138;14.332;2023-05-19T06:10:06;7.75;;;4.68;;
75716;SDS011;64333;50.138;14.332;2023-05-19T06:12:33;9.05;;;4.47;;
75716;SDS011;64333;50.138;14.332;2023-05-19T06:14:59;4.80;;;4.28;;
75716;SDS011;64333;50.138;14.332;2023-05-19T06:17:26;8.23;;;3.78;;
75716;SDS011;64333;50.138;14.332;2023-05-19T06:19:52;8.60;;;4.30;;
75716;SDS011;64333;50.138;14.332;2023-05-19T06:22:18;4.70;;;3.50;;
75716;SDS011;64333;50.138;14.332;2023-05-19T06:24:43;7.55;;;4.30;;
75716;SDS011;64333;50.138;14.332;2023-05-19T06:27:09;6.90;;;4.10;;
75716;SDS011;64333;50.138;14.332;2023-05-19T06:29:34;5.68;;;3.53;;
75716;SDS011;64333;50.138;14.332;2023-05-19T06:32:00;5.78;;;3.90;;
75716;SDS011;64333;50.138;14.332;2023-05-19T06:34:25;5.05;;;4.03;;
75716;SDS011;64333;50.138;14.332;2023-05-19T06:36:50;6.15;;;3.80;;
75716;SDS011;64333;50.138;14.332;2023-05-19T06:39:16;6.32;;;3.88;;
75716;SDS011;64333;50.138;14.332;2023-05-19T06:41:41;6.57;;;3.78;;
75716;SDS011;64333;50.138;14.332;2023-05-19T06:44:07;5.82;;;3.85;;
75716;SDS011;64333;50.138;14.332;2023-05-19T06:46:35;5.55;;;3.25;;
75716;SDS011;64333;50.138;14.332;2023-05-19T06:49:00;5.85;;;3.60;;
75716;SDS011;64333;50.138;14.332;2023-05-19T06:51:26;5.55;;;3.90;;
75716;SDS011;64333;50.138;14.332;2023-05-19T06:53:51;5.90;;;3.05;;
75716;SDS011;64333;50.138;14.332;2023-05-19T06:56:17;5.80;;;3.58;;
75716;SDS011;64333;50.138;14.332;2023-05-19T06:58:43;5.07;;;3.40;;
75716;SDS011;64333;50.138;14.332;2023-05-19T07:01:09;4.90;;;3.30;;
75716;SDS011;64333;50.138;14.332;2023-05-19T07:03:34;4.53;;;3.47;;
75716;SDS011;64333;50.138;14.332;2023-05-19T07:06:00;4.68;;;2.85;;
75716;SDS011;64333;50.138;14.332;2023-05-19T07:08:25;3.83;;;3.13;;
75716;SDS011;64333;50.138;14.332;2023-05-19T07:10:51;5.90;;;3.28;;
75716;SDS011;64333;50.138;14.332;2023-05-19T07:13:17;3.67;;;2.97;;
75716;SDS011;64333;50.138;14.332;2023-05-19T07:15:42;3.80;;;2.88;;
75716;SDS011;64333;50.138;14.332;2023-05-19T07:18:08;4.82;;;3.30;;
75716;SDS011;64333;50.138;14.332;2023-05-19T07:20:33;4.38;;;2.92;;
75716;SDS011;64333;50.138;14.332;2023-05-19T07:22:59;6.07;;;3.17;;
75716;SDS011;64333;50.138;14.332;2023-05-19T07:25:26;4.60;;;3.30;;
75716;SDS011;64333;50.138;14.332;2023-05-19T07:27:54;3.78;;;2.85;;
75716;SDS011;64333;50.138;14.332;2023-05-19T07:30:20;4.55;;;3.25;;
75716;SDS011;64333;50.138;14.332;2023-05-19T07:32:45;6.80;;;2.83;;
75716;SDS011;64333;50.138;14.332;2023-05-19T07:35:11;3.40;;;2.78;;
75716;SDS011;64333;50.138;14.332;2023-05-19T07:37:36;4.60;;;2.60;;
75716;SDS011;64333;50.138;14.332;2023-05-19T07:40:02;4.18;;;2.70;;
75716;SDS011;64333;50.138;14.332;2023-05-19T07:42:28;5.80;;;2.85;;
75716;SDS011;64333;50.138;14.332;2023-05-19T07:44:53;5.47;;;3.28;;
75716;SDS011;64333;50.138;14.332;2023-05-19T07:47:19;4.45;;;3.15;;
75716;SDS011;64333;50.138;14.332;2023-05-19T07:49:44;3.17;;;2.55;;
75716;SDS011;64333;50.138;14.332;2023-05-19T07:52:10;5.75;;;3.10;;
75716;SDS011;64333;50.138;14.332;2023-05-19T07:54:35;4.60;;;2.55;;
75716;SDS011;64333;50.138;14.332;2023-05-19T07:57:00;3.95;;;3.00;;
75716;SDS011;64333;50.138;14.332;2023-05-19T07:59:26;4.78;;;3.05;;
75716;SDS011;64333;50.138;14.332;2023-05-19T08:01:52;3.08;;;2.55;;
75716;SDS011;64333;50.138;14.332;2023-05-19T08:04:17;4.07;;;2.58;;
75716;SDS011;64333;50.138;14.332;2023-05-19T08:06:42;3.95;;;2.30;;
75716;SDS011;64333;50.138;14.332;2023-05-19T08:09:09;3.80;;;2.75;;
75716;SDS011;64333;50.138;14.332;2023-05-19T08:11:34;3.40;;;2.63;;
75716;SDS011;64333;50.138;14.332;2023-05-19T08:14:01;4.53;;;2.70;;
75716;SDS011;64333;50.138;14.332;2023-05-19T08:16:26;3.00;;;2.42;;
75716;SDS011;64333;50.138;14.332;2023-05-19T08:18:52;3.88;;;2.63;;
75716;SDS011;64333;50.138;14.332;2023-05-19T08:21:17;3.22;;;2.55;;
75716;SDS011;64333;50.138;14.332;2023-05-19T08:23:42;3.70;;;2.92;;
75716;SDS011;64333;50.138;14.332;2023-05-19T08:26:08;6.20;;;2.75;;
75716;SDS011;64333;50.138;14.332;2023-05-19T08:28:33;3.35;;;2.20;;
75716;SDS011;64333;50.138;14.332;2023-05-19T08:30:58;2.53;;;2.15;;
75716;SDS011;64333;50.138;14.332;2023-05-19T08:33:24;6.57;;;2.53;;
75716;SDS011;64333;50.138;14.332;2023-05-19T08:35:49;3.33;;;2.53;;
75716;SDS011;64333;50.138;14.332;2023-05-19T08:38:15;3.75;;;2.47;;
75716;SDS011;64333;50.138;14.332;2023-05-19T08:40:40;2.90;;;1.85;;
75716;SDS011;64333;50.138;14.332;2023-05-19T08:43:06;3.80;;;2.25;;
75716;SDS011;64333;50.138;14.332;2023-05-19T08:45:32;3.33;;;2.10;;
75716;SDS011;64333;50.138;14.332;2023-05-19T08:47:58;4.32;;;2.88;;
75716;SDS011;64333;50.138;14.332;2023-05-19T08:50:34;3.42;;;2.47;;
75716;SDS011;64333;50.138;14.332;2023-05-19T08:56:26;3.65;;;2.70;;
75716;SDS011;64333;50.138;14.332;2023-05-19T08:58:37;3.97;;;2.90;;
75716;SDS011;64333;50.138;14.332;2023-05-19T09:01:05;4.40;;;2.92;;
75716;SDS011;64333;50.138;14.332;2023-05-19T09:03:32;5.43;;;2.80;;
75716;SDS011;64333;50.138;14.332;2023-05-19T09:06:02;3.40;;;2.75;;
75716;SDS011;64333;50.138;14.332;2023-05-19T09:08:36;4.35;;;2.50;;
75716;SDS011;64333;50.138;14.332;2023-05-19T09:11:02;4.15;;;3.20;;
75716;SDS011;64333;50.138;14.332;2023-05-19T09:13:28;3.75;;;2.70;;
75716;SDS011;64333;50.138;14.332;2023-05-19T09:15:54;5.40;;;2.80;;
75716;SDS011;64333;50.138;14.332;2023-05-19T09:18:22;3.40;;;2.90;;
75716;SDS011;64333;50.138;14.332;2023-05-19T09:20:48;4.80;;;2.40;;
75716;SDS011;64333;50.138;14.332;2023-05-19T09:23:16;2.88;;;2.40;;
75716;SDS011;64333;50.138;14.332;2023-05-19T09:25:48;3.00;;;2.55;;
75716;SDS011;64333;50.138;14.332;2023-05-19T09:28:27;4.18;;;2.50;;
75716;SDS011;64333;50.138;14.332;2023-05-19T09:31:05;2.83;;;2.50;;
75716;SDS011;64333;50.138;14.332;2023-05-19T09:33:35;3.40;;;2.65;;
75716;SDS011;64333;50.138;14.332;2023-05-19T09:36:02;4.20;;;2.95;;
75716;SDS011;64333;50.138;14.332;2023-05-19T09:38:30;3.33;;;2.67;;
75716;SDS011;64333;50.138;14.332;2023-05-19T09:40:56;3.45;;;2.67;;
75716;SDS011;64333;50.138;14.332;2023-05-19T09:43:23;2.95;;;2.65;;
75716;SDS011;64333;50.138;14.332;2023-05-19T09:45:53;2.58;;;2.10;;
75716;SDS011;64333;50.138;14.332;2023-05-19T09:48:19;3.40;;;2.70;;
75716;SDS011;64333;50.138;14.332;2023-05-19T09:50:45;5.20;;;3.15;;
75716;SDS011;64333;50.138;14.332;2023-05-19T09:53:12;5.13;;;2.92;;
75716;SDS011;64333;50.138;14.332;2023-05-19T09:55:39;3.25;;;2.80;;
75716;SDS011;64333;50.138;14.332;2023-05-19T09:58:05;5.68;;;2.67;;
75716;SDS011;64333;50.138;14.332;2023-05-19T10:00:31;2.85;;;2.35;;
75716;SDS011;64333;50.138;14.332;2023-05-19T10:02:57;3.70;;;2.75;;
75716;SDS011;64333;50.138;14.332;2023-05-19T10:05:24;3.85;;;2.92;;
75716;SDS011;64333;50.138;14.332;2023-05-19T10:07:53;3.97;;;2.80;;
75716;SDS011;64333;50.138;14.332;2023-05-19T10:10:20;4.63;;;2.70;;
75716;SDS011;64333;50.138;14.332;2023-05-19T10:12:49;2.95;;;1.92;;
75716;SDS011;64333;50.138;14.332;2023-05-19T10:15:15;2.63;;;2.05;;
75716;SDS011;64333;50.138;14.332;2023-05-19T10:17:42;2.75;;;2.25;;
75716;SDS011;64333;50.138;14.332;2023-05-19T10:20:09;3.67;;;2.47;;
75716;SDS011;64333;50.138;14.332;2023-05-19T10:22:36;4.97;;;3.00;;
75716;SDS011;64333;50.138;14.332;2023-05-19T10:25:03;3.53;;;2.90;;
75716;SDS011;64333;50.138;14.332;2023-05-19T10:27:29;3.83;;;2.60;;
75716;SDS011;64333;50.138;14.332;2023-05-19T10:29:58;3.70;;;2.67;;
75716;SDS011;64333;50.138;14.332;2023-05-19T10:32:27;3.67;;;2.50;;
75716;SDS011;64333;50.138;14.332;2023-05-19T10:35:15;4.28;;;2.63;;
75716;SDS011;64333;50.138;14.332;2023-05-19T10:40:35;3.83;;;2.60;;
75716;SDS011;64333;50.138;14.332;2023-05-19T10:45:39;3.80;;;2.40;;
75716;SDS011;64333;50.138;14.332;2023-05-19T10:48:15;3.30;;;1.98;;
75716;SDS011;64333;50.138;14.332;2023-05-19T10:50:44;2.70;;;2.03;;
75716;SDS011;64333;50.138;14.332;2023-05-19T10:53:14;3.55;;;2.33;;
75716;SDS011;64333;50.138;14.332;2023-05-19T10:56:00;2.80;;;2.42;;
75716;SDS011;64333;50.138;14.332;2023-05-19T11:01:09;3.90;;;2.38;;
75716;SDS011;64333;50.138;14.332;2023-05-19T11:06:19;5.20;;;2.35;;
75716;SDS011;64333;50.138;14.332;2023-05-19T11:08:57;3.97;;;2.20;;
75716;SDS011;64333;50.138;14.332;2023-05-19T11:11:46;2.65;;;2.13;;
75716;SDS011;64333;50.138;14.332;2023-05-19T11:14:19;3.70;;;2.30;;
75716;SDS011;64333;50.138;14.332;2023-05-19T11:16:47;3.30;;;2.53;;
75716;SDS011;64333;50.138;14.332;2023-05-19T11:19:30;2.70;;;2.33;;
75716;SDS011;64333;50.138;14.332;2023-05-19T11:22:06;4.30;;;2.25;;
75716;SDS011;64333;50.138;14.332;2023-05-19T11:24:36;3.53;;;2.50;;
75716;SDS011;64333;50.138;14.332;2023-05-19T11:29:43;4.10;;;2.50;;
75716;SDS011;64333;50.138;14.332;2023-05-19T11:32:09;3.05;;;2.58;;
75716;SDS011;64333;50.138;14.332;2023-05-19T11:34:36;3.30;;;2.83;;
75716;SDS011;64333;50.138;14.332;2023-05-19T11:37:03;4.28;;;2.53;;
75716;SDS011;64333;50.138;14.332;2023-05-19T11:39:29;2.88;;;1.90;;
75716;SDS011;64333;50.138;14.332;2023-05-19T11:41:55;3.78;;;2.53;;
75716;SDS011;64333;50.138;14.332;2023-05-19T11:44:21;3.47;;;2.58;;
75716;SDS011;64333;50.138;14.332;2023-05-19T11:46:46;4.20;;;2.80;;
75716;SDS011;64333;50.138;14.332;2023-05-19T11:49:11;4.07;;;2.40;;
75716;SDS011;64333;50.138;14.332;2023-05-19T11:51:37;3.17;;;2.45;;
75716;SDS011;64333;50.138;14.332;2023-05-19T11:54:03;3.78;;;2.35;;
75716;SDS011;64333;50.138;14.332;2023-05-19T11:56:38;4.82;;;2.40;;
75716;SDS011;64333;50.138;14.332;2023-05-19T11:59:05;3.13;;;2.80;;
75716;SDS011;64333;50.138;14.332;2023-05-19T12:01:31;4.10;;;2.88;;
75716;SDS011;64333;50.138;14.332;2023-05-19T12:03:58;3.13;;;2.53;;
75716;SDS011;64333;50.138;14.332;2023-05-19T12:06:24;3.60;;;3.03;;
75716;SDS011;64333;50.138;14.332;2023-05-19T12:08:51;4.13;;;2.88;;
75716;SDS011;64333;50.138;14.332;2023-05-19T12:11:17;3.20;;;2.47;;
75716;SDS011;64333;50.138;14.332;2023-05-19T12:13:43;3.00;;;2.17;;
75716;SDS011;64333;50.138;14.332;2023-05-19T12:16:08;4.57;;;2.95;;
75716;SDS011;64333;50.138;14.332;2023-05-19T12:18:37;4.95;;;2.70;;
75716;SDS011;64333;50.138;14.332;2023-05-19T12:21:03;4.70;;;3.20;;
75716;SDS011;64333;50.138;14.332;2023-05-19T12:23:29;3.70;;;3.20;;
75716;SDS011;64333;50.138;14.332;2023-05-19T12:25:58;4.07;;;3.33;;
75716;SDS011;64333;50.138;14.332;2023-05-19T12:28:23;4.80;;;3.25;;
75716;SDS011;64333;50.138;14.332;2023-05-19T12:30:49;4.10;;;2.88;;
75716;SDS011;64333;50.138;14.332;2023-05-19T12:33:16;4.40;;;3.05;;
75716;SDS011;64333;50.138;14.332;2023-05-19T12:35:43;5.60;;;3.03;;
75716;SDS011;64333;50.138;14.332;2023-05-19T12:38:10;5.72;;;3.67;;
75716;SDS011;64333;50.138;14.332;2023-05-19T12:40:36;4.03;;;3.17;;
75716;SDS011;64333;50.138;14.332;2023-05-19T12:43:03;4.78;;;3.13;;
75716;SDS011;64333;50.138;14.332;2023-05-19T12:45:32;5.10;;;3.33;;
75716;SDS011;64333;50.138;14.332;2023-05-19T12:50:29;3.55;;;3.22;;
75716;SDS011;64333;50.138;14.332;2023-05-19T12:52:55;3.38;;;2.47;;
75716;SDS011;64333;50.138;14.332;2023-05-19T12:55:23;5.63;;;3.13;;
75716;SDS011;64333;50.138;14.332;2023-05-19T12:57:49;3.85;;;2.58;;
75716;SDS011;64333;50.138;14.332;2023-05-19T13:00:19;5.25;;;3.60;;
75716;SDS011;64333;50.138;14.332;2023-05-19T13:03:02;3.40;;;3.10;;
75716;SDS011;64333;50.138;14.332;2023-05-19T13:05:42;4.28;;;3.10;;
75716;SDS011;64333;50.138;14.332;2023-05-19T13:08:10;3.90;;;3.33;;
75716;SDS011;64333;50.138;14.332;2023-05-19T13:10:38;5.22;;;3.50;;
75716;SDS011;64333;50.138;14.332;2023-05-19T13:13:05;4.28;;;3.42;;
75716;SDS011;64333;50.138;14.332;2023-05-19T13:15:32;3.85;;;2.83;;
75716;SDS011;64333;50.138;14.332;2023-05-19T13:18:00;4.60;;;2.90;;
75716;SDS011;64333;50.138;14.332;2023-05-19T13:20:27;5.35;;;3.00;;
75716;SDS011;64333;50.138;14.332;2023-05-19T13:22:53;4.30;;;2.97;;
75716;SDS011;64333;50.138;14.332;2023-05-19T13:25:19;5.85;;;3.30;;
75716;SDS011;64333;50.138;14.332;2023-05-19T13:27:45;4.85;;;2.65;;
75716;SDS011;64333;50.138;14.332;2023-05-19T13:30:12;3.95;;;2.60;;
75716;SDS011;64333;50.138;14.332;2023-05-19T13:32:37;3.22;;;2.38;;
75716;SDS011;64333;50.138;14.332;2023-05-19T13:35:03;3.85;;;2.40;;
75716;SDS011;64333;50.138;14.332;2023-05-19T13:37:28;4.60;;;2.65;;
75716;SDS011;64333;50.138;14.332;2023-05-19T13:39:54;4.18;;;3.10;;
75716;SDS011;64333;50.138;14.332;2023-05-19T13:42:21;4.55;;;3.50;;
75716;SDS011;64333;50.138;14.332;2023-05-19T13:44:47;4.80;;;3.22;;
75716;SDS011;64333;50.138;14.332;2023-05-19T13:47:12;4.10;;;3.63;;
75716;SDS011;64333;50.138;14.332;2023-05-19T13:49:38;3.85;;;3.28;;
75716;SDS011;64333;50.138;14.332;2023-05-19T13:52:05;4.78;;;3.13;;
75716;SDS011;64333;50.138;14.332;2023-05-19T13:54:31;5.03;;;3.03;;
75716;SDS011;64333;50.138;14.332;2023-05-19T13:56:56;4.35;;;3.50;;
75716;SDS011;64333;50.138;14.332;2023-05-19T13:59:22;3.88;;;2.80;;
75716;SDS011;64333;50.138;14.332;2023-05-19T14:01:49;4.53;;;3.40;;
75716;SDS011;64333;50.138;14.332;2023-05-19T14:04:16;4.93;;;3.28;;
75716;SDS011;64333;50.138;14.332;2023-05-19T14:06:42;4.55;;;3.30;;
75716;SDS011;64333;50.138;14.332;2023-05-19T14:09:07;5.82;;;3.47;;
75716;SDS011;64333;50.138;14.332;2023-05-19T14:11:33;3.47;;;2.78;;
75716;SDS011;64333;50.138;14.332;2023-05-19T14:13:58;5.05;;;3.25;;
75716;SDS011;64333;50.138;14.332;2023-05-19T14:16:24;5.13;;;3.53;;
75716;SDS011;64333;50.138;14.332;2023-05-19T14:18:51;4.38;;;3.30;;
75716;SDS011;64333;50.138;14.332;2023-05-19T14:21:16;6.28;;;3.60;;
75716;SDS011;64333;50.138;14.332;2023-05-19T14:23:42;7.63;;;3.60;;
75716;SDS011;64333;50.138;14.332;2023-05-19T14:26:08;6.35;;;3.63;;
75716;SDS011;64333;50.138;14.332;2023-05-19T14:28:33;7.68;;;3.50;;
75716;SDS011;64333;50.138;14.332;2023-05-19T14:30:59;5.18;;;3.30;;
75716;SDS011;64333;50.138;14.332;2023-05-19T14:33:24;5.53;;;3.67;;
75716;SDS011;64333;50.138;14.332;2023-05-19T14:35:50;4.20;;;3.50;;
75716;SDS011;64333;50.138;14.332;2023-05-19T14:38:16;5.85;;;4.05;;
75716;SDS011;64333;50.138;14.332;2023-05-19T14:40:42;4.40;;;3.30;;
75716;SDS011;64333;50.138;14.332;2023-05-19T14:43:08;6.53;;;3.45;;
75716;SDS011;64333;50.138;14.332;2023-05-19T14:45:33;5.00;;;3.47;;
75716;SDS011;64333;50.138;14.332;2023-05-19T14:47:59;5.47;;;3.15;;
75716;SDS011;64333;50.138;14.332;2023-05-19T14:50:26;4.57;;;3.45;;
75716;SDS011;64333;50.138;14.332;2023-05-19T14:52:52;5.28;;;3.55;;
75716;SDS011;64333;50.138;14.332;2023-05-19T14:55:17;5.47;;;3.80;;
75716;SDS011;64333;50.138;14.332;2023-05-19T14:57:43;6.05;;;3.30;;
75716;SDS011;64333;50.138;14.332;2023-05-19T15:00:08;5.88;;;3.80;;
75716;SDS011;64333;50.138;14.332;2023-05-19T15:02:34;5.03;;;3.47;;
75716;SDS011;64333;50.138;14.332;2023-05-19T15:05:00;5.10;;;3.55;;
75716;SDS011;64333;50.138;14.332;2023-05-19T15:07:25;5.32;;;3.42;;
75716;SDS011;64333;50.138;14.332;2023-05-19T15:09:51;6.20;;;3.45;;